createdAt,value
2019-04-29T00:00:34.427Z,13.20
2019-04-29T00:03:05.000Z,13.20
2019-04-29T00:05:35.525Z,13.20
2019-04-29T00:08:05.918Z,13.20
2019-04-29T00:10:36.555Z,13.20
2019-04-29T00:13:06.925Z,13.20
2019-04-29T00:16:05.520Z,13.10
2019-04-29T00:18:52.249Z,13.10
2019-04-29T00:21:23.761Z,13.10
2019-04-29T00:24:03.545Z,13.00
2019-04-29T00:26:27.245Z,13.00
2019-04-29T00:28:57.889Z,13.00
2019-04-29T00:31:28.440Z,12.90
2019-04-29T00:33:59.327Z,12.90
2019-04-29T00:36:34.442Z,12.90
2019-04-29T00:39:35.102Z,12.80
2019-04-29T00:42:19.122Z,12.80
2019-04-29T00:44:49.997Z,12.80
2019-04-29T00:47:20.860Z,12.90
2019-04-29T00:49:51.669Z,12.90
2019-04-29T00:52:22.485Z,12.80
2019-04-29T00:54:59.436Z,12.80
2019-04-29T00:57:30.162Z,12.80
2019-04-29T01:00:00.975Z,12.80
2019-04-29T01:02:32.207Z,12.70
2019-04-29T01:05:02.952Z,12.80
2019-04-29T01:07:34.008Z,12.70
2019-04-29T01:10:06.178Z,12.80
2019-04-29T01:12:37.386Z,12.70
2019-04-29T01:15:09.386Z,12.70
2019-04-29T01:17:40.114Z,12.70
2019-04-29T01:20:11.853Z,12.70
2019-04-29T01:22:43.732Z,12.70
2019-04-29T01:25:14.640Z,12.70
2019-04-29T01:27:52.762Z,12.70
2019-04-29T01:30:55.031Z,12.70
2019-04-29T01:33:25.860Z,12.70
2019-04-29T01:36:21.530Z,12.70
2019-04-29T01:39:03.594Z,12.70
2019-04-29T01:41:45.177Z,12.70
2019-04-29T01:44:16.168Z,12.60
2019-04-29T01:46:46.589Z,12.60
2019-04-29T01:49:17.025Z,12.50
2019-04-29T01:51:47.811Z,12.50
2019-04-29T01:54:18.628Z,12.50
2019-04-29T01:56:49.497Z,12.40
2019-04-29T01:59:20.678Z,12.30
2019-04-29T02:01:51.483Z,12.30
2019-04-29T02:04:22.332Z,12.30
2019-04-29T02:06:53.171Z,12.30
2019-04-29T02:09:34.466Z,12.30
2019-04-29T02:12:05.122Z,12.30
2019-04-29T02:14:35.911Z,12.30
2019-04-29T02:17:06.638Z,12.30
2019-04-29T02:19:37.278Z,12.20
2019-04-29T02:22:12.145Z,12.20
2019-04-29T02:24:46.107Z,12.20
2019-04-29T02:27:16.864Z,12.20
2019-04-29T02:29:47.719Z,12.20
2019-04-29T02:32:18.652Z,12.20
2019-04-29T02:34:49.667Z,12.20
2019-04-29T02:37:26.913Z,12.10
2019-04-29T02:40:04.091Z,12.10
2019-04-29T02:42:59.655Z,12.10
2019-04-29T02:45:33.042Z,12.10
2019-04-29T02:48:13.750Z,12.00
2019-04-29T02:50:44.457Z,12.00
2019-04-29T02:53:14.982Z,12.00
2019-04-29T02:55:49.879Z,12.00
2019-04-29T02:58:33.288Z,12.00
2019-04-29T03:01:22.875Z,12.00
2019-04-29T03:04:09.813Z,12.00
2019-04-29T03:06:40.200Z,12.00
2019-04-29T03:09:10.625Z,12.00
2019-04-29T03:11:41.143Z,11.90
2019-04-29T03:14:11.618Z,11.90
2019-04-29T03:16:42.010Z,11.90
2019-04-29T03:19:18.250Z,11.80
2019-04-29T03:21:54.462Z,11.80
2019-04-29T03:24:24.869Z,11.80
2019-04-29T03:26:55.251Z,11.80
2019-04-29T03:29:25.611Z,11.80
2019-04-29T03:31:57.696Z,11.80
2019-04-29T03:34:28.235Z,11.80
2019-04-29T03:36:58.749Z,11.80
2019-04-29T03:39:29.132Z,11.80
2019-04-29T03:41:59.596Z,11.80
2019-04-29T03:44:30.028Z,11.80
2019-04-29T03:47:00.562Z,11.80
2019-04-29T03:49:32.176Z,11.80
2019-04-29T03:52:02.667Z,11.80
2019-04-29T03:54:33.241Z,11.80
2019-04-29T03:57:03.597Z,11.80
2019-04-29T03:59:33.999Z,11.80
2019-04-29T04:02:18.714Z,11.70
2019-04-29T04:05:09.047Z,11.60
2019-04-29T04:07:47.252Z,11.60
2019-04-29T04:10:17.617Z,11.60
2019-04-29T04:12:49.133Z,11.60
2019-04-29T04:15:19.533Z,11.60
2019-04-29T04:18:08.800Z,11.60
2019-04-29T04:20:39.317Z,11.60
2019-04-29T04:23:09.925Z,11.50
2019-04-29T04:25:45.828Z,11.50
2019-04-29T04:28:31.488Z,11.50
2019-04-29T04:31:06.251Z,11.40
2019-04-29T04:33:34.187Z,11.40
2019-04-29T04:36:04.596Z,11.40
2019-04-29T04:38:35.132Z,11.40
2019-04-29T04:41:08.565Z,11.40
2019-04-29T04:43:52.582Z,11.40
2019-04-29T04:46:23.430Z,11.40
2019-04-29T04:48:54.342Z,11.40
2019-04-29T04:51:25.285Z,11.40
2019-04-29T04:53:57.126Z,11.40
2019-04-29T04:56:27.687Z,11.30
2019-04-29T04:58:58.105Z,11.40
2019-04-29T05:01:28.583Z,11.30
2019-04-29T05:03:58.952Z,11.30
2019-04-29T05:06:29.425Z,11.20
2019-04-29T05:08:59.848Z,11.20
2019-04-29T05:11:30.721Z,11.10
2019-04-29T05:14:01.486Z,11.10
2019-04-29T05:16:32.280Z,11.00
2019-04-29T05:19:03.274Z,11.00
2019-04-29T05:21:33.740Z,11.00
2019-04-29T05:24:04.247Z,11.10
2019-04-29T05:26:34.715Z,11.00
2019-04-29T05:29:05.262Z,11.00
2019-04-29T05:31:35.655Z,11.00
2019-04-29T05:34:06.025Z,11.00
2019-04-29T05:36:49.726Z,10.90
2019-04-29T05:39:26.394Z,10.90
2019-04-29T05:41:56.736Z,10.90
2019-04-29T05:44:35.736Z,10.90
2019-04-29T05:47:09.587Z,10.90
2019-04-29T05:49:48.669Z,10.90
2019-04-29T05:52:39.562Z,11.00
2019-04-29T05:55:13.912Z,10.90
2019-04-29T05:57:45.315Z,10.80
2019-04-29T06:00:18.756Z,10.80
2019-04-29T06:02:48.993Z,10.90
2019-04-29T06:05:19.870Z,10.80
2019-04-29T06:07:51.739Z,10.80
2019-04-29T06:10:22.970Z,10.80
2019-04-29T06:12:54.910Z,10.90
2019-04-29T06:15:25.862Z,10.90
2019-04-29T06:17:56.780Z,10.90
2019-04-29T06:20:27.288Z,10.90
2019-04-29T06:22:57.710Z,10.90
2019-04-29T06:25:28.071Z,10.90
2019-04-29T06:27:58.554Z,10.90
2019-04-29T06:30:29.020Z,10.90
2019-04-29T06:32:59.449Z,10.90
2019-04-29T06:35:30.027Z,10.80
2019-04-29T06:38:00.407Z,10.80
2019-04-29T06:40:35.270Z,10.90
2019-04-29T06:43:02.887Z,10.90
2019-04-29T06:45:33.337Z,10.90
2019-04-29T06:48:03.723Z,10.90
2019-04-29T06:50:34.133Z,10.90
2019-04-29T06:53:05.966Z,10.90
2019-04-29T06:55:50.080Z,11.00
2019-04-29T06:58:20.588Z,11.00
2019-04-29T07:00:51.238Z,11.00
2019-04-29T07:03:25.538Z,10.90
2019-04-29T07:05:55.187Z,10.90
2019-04-29T07:08:25.619Z,10.90
2019-04-29T07:11:00.703Z,10.90
2019-04-29T07:13:28.055Z,11.00
2019-04-29T07:15:58.459Z,11.00
2019-04-29T07:18:29.007Z,11.00
2019-04-29T07:20:59.400Z,11.00
2019-04-29T07:23:29.869Z,11.00
2019-04-29T07:26:00.274Z,10.90
2019-04-29T07:28:30.811Z,10.90
2019-04-29T07:31:02.787Z,10.90
2019-04-29T07:33:33.467Z,10.90
2019-04-29T07:36:10.775Z,10.90
2019-04-29T07:38:41.685Z,10.90
2019-04-29T07:41:09.976Z,10.80
2019-04-29T07:43:43.107Z,10.90
2019-04-29T07:46:27.629Z,10.90
2019-04-29T07:49:01.597Z,10.90
2019-04-29T07:51:30.234Z,10.90
2019-04-29T07:54:00.647Z,10.90
2019-04-29T07:56:31.031Z,11.00
2019-04-29T07:59:02.984Z,11.00
2019-04-29T08:01:33.455Z,10.90
2019-04-29T08:04:04.016Z,10.90
2019-04-29T08:06:38.133Z,10.90
2019-04-29T08:09:09.719Z,10.90
2019-04-29T08:11:47.553Z,10.80
2019-04-29T08:14:21.233Z,10.80
2019-04-29T08:16:51.776Z,10.70
2019-04-29T08:19:24.777Z,10.70
2019-04-29T08:22:17.836Z,10.70
2019-04-29T08:24:50.563Z,10.80
2019-04-29T08:27:18.396Z,10.70
2019-04-29T08:29:49.236Z,10.70
2019-04-29T08:32:19.937Z,10.80
2019-04-29T08:34:53.569Z,10.90
2019-04-29T08:37:24.910Z,10.90
2019-04-29T08:40:14.917Z,10.80
2019-04-29T08:42:31.048Z,10.80
2019-04-29T08:45:23.299Z,10.80
2019-04-29T08:47:53.994Z,10.80
2019-04-29T08:50:24.446Z,10.80
2019-04-29T08:52:54.953Z,10.80
2019-04-29T08:55:26.689Z,10.80
2019-04-29T08:57:57.406Z,10.80
2019-04-29T09:00:27.769Z,10.80
2019-04-29T09:02:58.224Z,10.80
2019-04-29T09:05:28.682Z,10.80
2019-04-29T09:07:59.171Z,10.90
2019-04-29T09:10:33.090Z,10.90
2019-04-29T09:13:03.179Z,10.90
2019-04-29T09:15:33.718Z,11.00
2019-04-29T09:18:23.087Z,11.00
2019-04-29T09:20:53.927Z,11.10
2019-04-29T09:23:27.066Z,11.10
2019-04-29T09:26:34.974Z,11.10
2019-04-29T09:29:46.167Z,11.20
2019-04-29T09:32:15.789Z,11.20
2019-04-29T09:34:46.925Z,11.30
2019-04-29T09:37:18.650Z,11.40
2019-04-29T09:39:50.401Z,11.50
2019-04-29T09:42:45.504Z,11.50
2019-04-29T09:45:28.251Z,11.40
2019-04-29T09:47:59.020Z,11.50
2019-04-29T09:50:34.219Z,11.50
2019-04-29T09:53:02.653Z,11.40
2019-04-29T09:55:35.681Z,11.40
2019-04-29T09:58:06.144Z,11.40
2019-04-29T10:00:58.439Z,11.40
2019-04-29T10:03:39.825Z,11.50
2019-04-29T10:06:26.359Z,11.50
2019-04-29T10:08:57.854Z,11.60
2019-04-29T10:11:29.003Z,11.70
2019-04-29T10:14:01.140Z,11.70
2019-04-29T10:16:56.600Z,11.70
2019-04-29T10:19:51.621Z,11.70
2019-04-29T10:22:22.151Z,11.70
2019-04-29T10:24:52.588Z,11.70
2019-04-29T10:27:23.043Z,11.60
2019-04-29T10:29:57.063Z,11.60
2019-04-29T10:32:27.832Z,11.50
2019-04-29T10:34:58.305Z,11.50
2019-04-29T10:37:31.315Z,11.50
2019-04-29T10:40:35.047Z,11.50
2019-04-29T10:43:15.533Z,11.50
2019-04-29T10:46:19.155Z,11.50
2019-04-29T10:48:59.057Z,11.50
2019-04-29T10:51:28.562Z,11.50
2019-04-29T10:53:59.055Z,11.50
2019-04-29T10:56:29.470Z,11.50
2019-04-29T10:58:59.961Z,11.50
2019-04-29T11:02:33.735Z,11.50
2019-04-29T11:05:24.987Z,11.50
2019-04-29T11:08:02.657Z,11.50
2019-04-29T11:10:32.286Z,11.60
2019-04-29T11:13:02.842Z,11.60
2019-04-29T11:15:36.517Z,11.60
2019-04-29T11:18:08.431Z,11.70
2019-04-29T11:20:38.859Z,11.70
2019-04-29T11:23:34.277Z,11.70
2019-04-29T11:26:17.369Z,11.70
2019-04-29T11:28:51.096Z,11.80
2019-04-29T11:31:20.512Z,11.80
2019-04-29T11:34:00.942Z,11.80
2019-04-29T11:36:34.953Z,11.80
2019-04-29T11:39:03.520Z,11.80
2019-04-29T11:41:35.507Z,11.80
2019-04-29T11:44:06.317Z,11.90
2019-04-29T11:46:36.748Z,11.80
2019-04-29T11:49:07.795Z,11.80
2019-04-29T11:52:07.400Z,11.80
2019-04-29T11:54:17.911Z,11.70
2019-04-29T11:56:45.946Z,11.70
2019-04-29T11:59:53.582Z,11.80
2019-04-29T12:02:45.352Z,11.90
2019-04-29T12:05:18.640Z,11.90
2019-04-29T12:07:49.316Z,11.90
2019-04-29T12:10:19.691Z,11.90
2019-04-29T12:12:51.120Z,11.90
2019-04-29T12:15:34.820Z,11.70
2019-04-29T12:18:28.173Z,11.80
2019-04-29T12:21:13.519Z,11.70
2019-04-29T12:23:47.773Z,11.80
2019-04-29T12:26:18.679Z,11.80
2019-04-29T12:28:49.090Z,11.80
2019-04-29T12:31:25.215Z,11.90
2019-04-29T12:34:20.811Z,11.90
2019-04-29T12:36:55.884Z,11.90
2019-04-29T12:39:43.888Z,11.90
2019-04-29T12:42:35.837Z,11.80
2019-04-29T12:45:21.081Z,11.80
2019-04-29T12:47:51.582Z,11.80
2019-04-29T12:50:23.126Z,11.80
2019-04-29T12:52:53.755Z,11.80
2019-04-29T12:55:44.300Z,11.80
2019-04-29T12:58:03.614Z,11.70
2019-04-29T13:00:46.829Z,11.70
2019-04-29T13:03:31.010Z,11.70
2019-04-29T13:06:23.699Z,11.70
2019-04-29T13:08:53.693Z,11.80
2019-04-29T13:11:37.517Z,11.80
2019-04-29T13:14:01.628Z,11.80
2019-04-29T13:16:39.463Z,11.90
2019-04-29T13:19:34.881Z,11.90
2019-04-29T13:22:05.563Z,11.80
2019-04-29T13:24:38.574Z,11.80
2019-04-29T13:27:16.047Z,11.80
2019-04-29T13:29:40.728Z,11.80
2019-04-29T13:32:11.186Z,11.80
2019-04-29T13:34:43.699Z,11.80
2019-04-29T13:37:18.772Z,11.90
2019-04-29T13:39:46.455Z,11.80
2019-04-29T13:42:17.032Z,11.90
2019-04-29T13:45:05.172Z,11.90
2019-04-29T13:47:33.954Z,11.90
2019-04-29T13:50:34.083Z,11.80
2019-04-29T13:52:47.130Z,11.80
2019-04-29T13:55:46.208Z,11.80
2019-04-29T13:57:50.881Z,11.80
2019-04-29T14:00:37.323Z,11.80
2019-04-29T14:03:13.350Z,11.80
2019-04-29T14:05:43.709Z,11.80
2019-04-29T14:08:14.269Z,11.90
2019-04-29T14:10:46.743Z,11.90
2019-04-29T14:13:20.837Z,11.90
2019-04-29T14:15:48.980Z,11.90
2019-04-29T14:18:19.426Z,12.00
2019-04-29T14:20:51.877Z,12.00
2019-04-29T14:23:23.439Z,12.00
2019-04-29T14:25:54.936Z,12.00
2019-04-29T14:28:25.335Z,12.00
2019-04-29T14:30:56.030Z,12.00
2019-04-29T14:33:31.515Z,12.00
2019-04-29T14:36:09.544Z,12.00
2019-04-29T14:38:40.495Z,12.00
2019-04-29T14:41:14.093Z,12.00
2019-04-29T14:43:57.089Z,12.00
2019-04-29T14:46:49.546Z,12.00
2019-04-29T14:49:27.101Z,12.00
2019-04-29T14:51:57.858Z,12.00
2019-04-29T14:54:28.473Z,12.00
2019-04-29T14:56:59.009Z,12.00
2019-04-29T14:59:29.650Z,12.00
2019-04-29T15:02:03.762Z,12.00
2019-04-29T15:04:43.102Z,12.00
2019-04-29T15:07:13.665Z,11.90
2019-04-29T15:09:58.213Z,11.90
2019-04-29T15:13:18.364Z,11.90
2019-04-29T15:16:09.687Z,11.90
2019-04-29T15:18:48.161Z,11.90
2019-04-29T15:21:32.367Z,11.90
2019-04-29T15:23:54.866Z,11.90
2019-04-29T15:26:26.496Z,11.90
2019-04-29T15:28:56.970Z,11.90
2019-04-29T15:31:27.439Z,11.90
2019-04-29T15:33:57.909Z,11.90
2019-04-29T15:36:30.792Z,11.90
2019-04-29T15:39:09.877Z,11.90
2019-04-29T15:41:34.316Z,11.90
2019-04-29T15:44:08.365Z,11.90
2019-04-29T15:46:46.358Z,11.80
2019-04-29T15:49:09.736Z,11.90
2019-04-29T15:51:44.153Z,11.90
2019-04-29T15:54:14.479Z,11.90
2019-04-29T15:56:44.590Z,11.90
2019-04-29T15:59:15.093Z,11.80
2019-04-29T16:01:45.920Z,11.80
2019-04-29T16:04:27.786Z,11.80
2019-04-29T16:07:18.940Z,11.80
2019-04-29T16:10:20.524Z,11.80
2019-04-29T16:12:53.640Z,11.80
2019-04-29T16:15:24.176Z,11.80
2019-04-29T16:17:54.634Z,11.80
2019-04-29T16:20:26.175Z,11.80
2019-04-29T16:23:00.530Z,11.80
2019-04-29T16:25:28.695Z,11.80
2019-04-29T16:27:59.045Z,11.80
2019-04-29T16:30:31.988Z,11.70
2019-04-29T16:33:01.504Z,11.70
2019-04-29T16:35:34.873Z,11.60
2019-04-29T16:38:11.644Z,11.60
2019-04-29T16:40:41.384Z,11.60
2019-04-29T16:43:30.918Z,11.60
2019-04-29T16:46:17.353Z,11.60
2019-04-29T16:48:47.851Z,11.60
2019-04-29T16:51:18.313Z,11.60
2019-04-29T16:53:59.070Z,11.60
2019-04-29T16:56:30.678Z,11.60
2019-04-29T16:59:08.834Z,11.60
2019-04-29T17:01:33.971Z,11.60
2019-04-29T17:04:05.415Z,11.60
2019-04-29T17:06:41.700Z,11.60
2019-04-29T17:09:46.932Z,11.60
2019-04-29T17:12:17.428Z,11.50
2019-04-29T17:15:03.174Z,11.50
2019-04-29T17:17:28.801Z,11.50
2019-04-29T17:19:55.761Z,11.50
2019-04-29T17:22:27.660Z,11.50
2019-04-29T17:24:58.370Z,11.50
2019-04-29T17:27:51.378Z,11.60
2019-04-29T17:30:47.218Z,11.60
2019-04-29T17:33:31.279Z,11.60
2019-04-29T17:36:02.323Z,11.60
2019-04-29T17:38:32.944Z,11.60
2019-04-29T17:41:03.434Z,11.70
2019-04-29T17:43:59.788Z,11.60
2019-04-29T17:46:40.684Z,11.70
2019-04-29T17:49:22.192Z,11.60
2019-04-29T17:51:51.513Z,11.60
2019-04-29T17:54:28.257Z,11.60
2019-04-29T17:57:28.708Z,11.50
2019-04-29T18:00:08.589Z,11.50
2019-04-29T18:03:02.820Z,11.50
2019-04-29T18:05:53.064Z,11.50
2019-04-29T18:08:18.890Z,11.50
2019-04-29T18:10:52.831Z,11.50
2019-04-29T18:13:24.651Z,11.50
2019-04-29T18:16:01.571Z,11.50
2019-04-29T18:18:46.561Z,11.40
2019-04-29T18:21:31.750Z,11.40
2019-04-29T18:24:19.672Z,11.40
2019-04-29T18:26:54.043Z,11.40
2019-04-29T18:29:25.782Z,11.40
2019-04-29T18:31:56.469Z,11.40
2019-04-29T18:34:29.297Z,11.40
2019-04-29T18:37:00.366Z,11.40
2019-04-29T18:39:31.781Z,11.40
2019-04-29T18:42:03.532Z,11.40
2019-04-29T18:44:35.771Z,11.30
2019-04-29T18:47:06.485Z,11.30
2019-04-29T18:49:36.848Z,11.30
2019-04-29T18:52:07.793Z,11.30
2019-04-29T18:54:38.425Z,11.30
2019-04-29T18:57:10.362Z,11.30
2019-04-29T18:59:42.188Z,11.30
2019-04-29T19:02:14.581Z,11.30
2019-04-29T19:04:57.351Z,11.30
2019-04-29T19:07:31.770Z,11.30
2019-04-29T19:10:00.192Z,11.40
2019-04-29T19:12:30.607Z,11.30
2019-04-29T19:15:04.943Z,11.30
2019-04-29T19:17:36.734Z,11.30
2019-04-29T19:20:08.554Z,11.40
2019-04-29T19:22:39.928Z,11.30
2019-04-29T19:25:12.089Z,11.30
2019-04-29T19:27:43.042Z,11.30
2019-04-29T19:30:20.797Z,11.30
2019-04-29T19:32:47.004Z,11.30
2019-04-29T19:35:17.527Z,11.30
2019-04-29T19:37:48.088Z,11.20
2019-04-29T19:40:18.809Z,11.20
2019-04-29T19:42:49.902Z,11.20
2019-04-29T19:45:21.005Z,11.10
2019-04-29T19:47:53.353Z,11.20
2019-04-29T19:50:25.726Z,11.10
2019-04-29T19:53:00.637Z,11.10
2019-04-29T19:55:33.335Z,11.20
2019-04-29T19:58:02.141Z,11.10
2019-04-29T20:00:33.940Z,11.10
2019-04-29T20:03:20.375Z,11.10
2019-04-29T20:05:46.888Z,11.10
2019-04-29T20:08:31.552Z,11.10
2019-04-29T20:10:52.460Z,11.00
2019-04-29T20:13:30.446Z,11.00
2019-04-29T20:16:24.837Z,11.00
2019-04-29T20:19:16.536Z,11.00
2019-04-29T20:21:41.897Z,11.00
2019-04-29T20:24:15.381Z,11.00
2019-04-29T20:26:46.880Z,11.00
2019-04-29T20:29:18.678Z,11.00
2019-04-29T20:31:53.314Z,11.00
2019-04-29T20:34:24.551Z,11.00
2019-04-29T20:36:55.791Z,10.90
2019-04-29T20:39:26.901Z,10.90
2019-04-29T20:42:00.943Z,10.90
2019-04-29T20:44:30.291Z,11.00
2019-04-29T20:47:16.764Z,11.00
2019-04-29T20:49:36.037Z,11.00
2019-04-29T20:52:21.722Z,11.00
2019-04-29T20:54:57.504Z,11.00
2019-04-29T20:57:27.207Z,11.10
2019-04-29T20:59:57.982Z,11.10
2019-04-29T21:02:34.400Z,11.00
2019-04-29T21:05:02.978Z,11.00
2019-04-29T21:07:33.978Z,11.00
2019-04-29T21:10:08.301Z,11.00
2019-04-29T21:13:03.347Z,11.00
2019-04-29T21:16:08.231Z,10.90
2019-04-29T21:18:40.129Z,10.90
2019-04-29T21:21:11.097Z,10.90
2019-04-29T21:23:42.200Z,10.90
2019-04-29T21:26:13.033Z,10.80
2019-04-29T21:28:46.534Z,10.80
2019-04-29T21:31:19.920Z,10.70
2019-04-29T21:33:50.722Z,10.80
2019-04-29T21:36:36.812Z,10.80
2019-04-29T21:39:26.913Z,10.80
2019-04-29T21:42:20.347Z,10.80
2019-04-29T21:44:51.217Z,10.80
2019-04-29T21:47:25.057Z,10.80
2019-04-29T21:49:57.744Z,10.80
2019-04-29T21:52:39.026Z,10.80
2019-04-29T21:55:10.389Z,10.80
2019-04-29T21:57:41.209Z,10.80
2019-04-29T22:00:12.699Z,10.70
2019-04-29T22:02:48.988Z,10.70
2019-04-29T22:05:18.841Z,10.60
2019-04-29T22:07:50.459Z,10.60
2019-04-29T22:10:25.241Z,10.60
2019-04-29T22:12:58.357Z,10.60
2019-04-29T22:15:32.747Z,10.60
2019-04-29T22:18:01.692Z,10.60
2019-04-29T22:20:37.619Z,10.60
2019-04-29T22:23:08.411Z,10.60
2019-04-29T22:25:41.004Z,10.70
2019-04-29T22:28:10.717Z,10.70
2019-04-29T22:30:42.038Z,10.80
2019-04-29T22:33:15.208Z,10.70
2019-04-29T22:35:45.633Z,10.80
2019-04-29T22:38:18.733Z,10.70
2019-04-29T22:40:50.382Z,10.70
2019-04-29T22:43:30.807Z,10.70
2019-04-29T22:46:04.747Z,10.60
2019-04-29T22:48:34.975Z,10.60
2019-04-29T22:51:05.891Z,10.60
2019-04-29T22:53:40.011Z,10.60
2019-04-29T22:56:13.877Z,10.60
2019-04-29T22:58:43.845Z,10.60
2019-04-29T23:01:15.565Z,10.50
2019-04-29T23:03:47.354Z,10.60
2019-04-29T23:06:19.139Z,10.50
2019-04-29T23:08:49.961Z,10.50
2019-04-29T23:11:20.608Z,10.50
2019-04-29T23:13:51.461Z,10.60
2019-04-29T23:16:22.284Z,10.50
2019-04-29T23:18:55.261Z,10.50
2019-04-29T23:21:57.078Z,10.50
2019-04-29T23:24:50.866Z,10.50
2019-04-29T23:27:19.711Z,10.60
2019-04-29T23:29:50.644Z,10.60
2019-04-29T23:32:21.380Z,10.60
2019-04-29T23:34:52.061Z,10.70
2019-04-29T23:37:23.848Z,10.60
2019-04-29T23:39:55.757Z,10.60
2019-04-29T23:42:26.828Z,10.60
2019-04-29T23:44:57.616Z,10.60
2019-04-29T23:47:28.428Z,10.60
2019-04-29T23:49:59.204Z,10.60
2019-04-29T23:52:30.240Z,10.50
2019-04-29T23:55:00.985Z,10.50
2019-04-29T23:57:50.119Z,10.50
